< Typhoon 198927 1989 Season Typhoon 198929 >
Typhoon 198928 (FORREST)
General InformationTrack Information on Google MapsDetailed Wind InformationList of All Images || Disaster Info.ResourceGoogle EarthGE AnimationAtom FeedGeoJSON
Detalied Best Track (Time Zone = UTC)
Year Month Day Hour Lat. Long. Pressure (hPa) Wind (kt) Class Image Chart
1989 10 21 00 8.0 153.0 1004 0 2 Image Chart
1989 10 21 06 8.4 152.4 1000 0 2 Image Chart
1989 10 21 12 8.7 151.8 1000 0 2 Image Chart
1989 10 21 18 9.1 151.1 1000 0 2 Image Chart
1989 10 22 00 9.6 150.1 1000 0 2 Image Chart
1989 10 22 06 10.1 149.8 998 35 3 Image Chart
1989 10 22 12 10.8 149.1 996 35 3 Image Chart
1989 10 22 18 11.4 148.4 994 40 3 Image Chart
1989 10 23 00 12.1 147.9 992 45 3 Image Chart
1989 10 23 06 12.9 147.5 990 45 3 Image Chart
1989 10 23 12 13.5 147.1 985 50 4 Image Chart
1989 10 23 18 14.1 146.7 985 50 4 Image Chart
1989 10 24 00 14.6 146.1 985 50 4 Image Chart
1989 10 24 06 15.0 145.4 980 55 4 Image Chart
1989 10 24 12 15.6 144.5 980 55 4 Image Chart
1989 10 24 18 16.0 143.6 975 60 4 Image Chart
1989 10 25 00 16.6 142.7 970 65 5 Image Chart
1989 10 25 06 17.2 141.7 965 70 5 Image Chart
1989 10 25 12 17.8 141.1 960 75 5 Image Chart
1989 10 25 18 18.5 140.4 955 75 5 Image Chart
1989 10 26 00 19.4 139.7 955 75 5 Image Chart
1989 10 26 06 20.2 139.1 950 80 5 Image Chart
1989 10 26 12 21.0 138.5 950 80 5 Image Chart
1989 10 26 18 21.7 138.0 945 85 5 Image Chart
1989 10 27 00 22.5 137.5 940 85 5 Image Chart
1989 10 27 06 23.3 137.2 940 85 5 Image Chart
1989 10 27 12 24.5 137.0 940 85 5 Image Chart
1989 10 27 18 26.0 137.3 940 85 5 Image Chart
1989 10 28 00 27.2 137.6 945 85 5 Image Chart
1989 10 28 06 28.3 138.3 950 80 5 Image Chart
1989 10 28 12 29.9 140.0 960 75 5 Image Chart
1989 10 28 18 31.9 143.8 965 70 5 Image Chart
1989 10 29 00 33.5 148.3 970 65 5 Image Chart
1989 10 29 06 37.0 154.0 970 0 6 Image Chart
1989 10 29 12 40.0 158.0 960 0 6 Image Chart
1989 10 29 18 44.0 161.0 956 0 6 Image Chart
1989 10 30 00 46.0 163.0 952 0 6 Image Chart
1989 10 30 06 46.5 163.5 952 0 6 Image Chart
1989 10 30 12 46.5 165.0 960 0 6 Image Chart
1989 10 30 18 46.0 167.0 964 0 6 Image Chart
1989 10 31 00 46.0 170.0 968 0 6 Image Chart
1989 10 31 06 47.0 173.0 970 0 6 Image Chart
1989 10 31 12 47.0 176.0 972 0 6 Image Chart
1989 10 31 18 48.5 180.0 974 0 6 Image Chart
1989 11 1 00 49.0 183.0 976 0 6 Image Chart
Japan Meteorological Agency Best Track Data | Correction Date : 1992-10-21
< Typhoon 198927 1989 Season Typhoon 198929 >

Help